Time;durP1;ratioP1;P1;durP2;ratioP2;P2;SDS_P1;SDS_P2;PMS_P1;PMS_P2;Temp;Humidity;BMP_temperature;BMP_pressure;BME280_temperature;BME280_humidity;BME280_pressure;Samples;Min_cycle;Max_cycle;Signal;HPM_P1;HPM_P2
2023/06/13 00:01:04;;;;;;;4.68;2.83;;;20.00;91.50;;;;;;5009621;28;20201;-71
2023/06/13 00:03:30;;;;;;;3.25;2.40;;;19.90;91.30;;;;;;5008130;28;20260;-71
2023/06/13 00:05:57;;;;;;;8.32;3.58;;;19.90;91.30;;;;;;5007931;28;20590;-71
2023/06/13 00:08:24;;;;;;;4.13;2.88;;;19.90;91.60;;;;;;5006279;28;20270;-71
2023/06/13 00:10:50;;;;;;;4.82;3.15;;;19.80;91.70;;;;;;5010943;28;20208;-73
2023/06/13 00:13:17;;;;;;;6.75;3.05;;;19.80;91.80;;;;;;5005012;28;20703;-72
2023/06/13 00:15:52;;;;;;;5.28;2.92;;;19.80;91.80;;;;;;5007664;28;20597;-70
2023/06/13 00:18:19;;;;;;;5.85;3.15;;;19.80;92.20;;;;;;5018410;28;20213;-71
2023/06/13 00:20:45;;;;;;;8.07;2.97;;;19.80;92.10;;;;;;5000330;28;20208;-72
2023/06/13 00:23:12;;;;;;;8.75;2.70;;;19.80;91.70;;;;;;5007791;28;20232;-72
2023/06/13 00:25:38;;;;;;;5.50;2.72;;;19.70;92.10;;;;;;5003174;28;20205;-70
2023/06/13 00:28:03;;;;;;;3.38;3.08;;;19.70;92.10;;;;;;5007615;28;20584;-71
2023/06/13 00:30:30;;;;;;;5.20;2.78;;;19.70;92.10;;;;;;5010588;28;20217;-71
2023/06/13 00:32:56;;;;;;;3.72;2.65;;;19.70;92.00;;;;;;5010679;28;20652;-71
2023/06/13 00:35:22;;;;;;;4.82;3.05;;;19.60;92.10;;;;;;5008566;28;20201;-70
2023/06/13 00:37:54;;;;;;;4.40;2.80;;;19.70;92.40;;;;;;5009595;28;20208;-71
2023/06/13 00:40:21;;;;;;;5.72;2.70;;;19.70;92.40;;;;;;5007448;28;20213;-72
2023/06/13 00:42:47;;;;;;;6.00;3.17;;;19.70;92.60;;;;;;5008561;28;20201;-71
2023/06/13 00:45:24;;;;;;;5.15;3.05;;;19.60;92.50;;;;;;5007781;28;20205;-71
2023/06/13 00:48:05;;;;;;;4.00;2.53;;;19.70;92.50;;;;;;5003406;28;20199;-71
2023/06/13 00:50:34;;;;;;;4.40;2.78;;;19.60;92.70;;;;;;5005540;28;20267;-71
2023/06/13 00:53:11;;;;;;;4.93;3.00;;;19.60;92.70;;;;;;5005360;28;20201;-71
2023/06/13 00:55:38;;;;;;;5.60;3.00;;;19.50;92.70;;;;;;5004374;28;20223;-71
2023/06/13 00:58:06;;;;;;;6.28;3.00;;;19.40;92.90;;;;;;5006437;28;20712;-71
2023/06/13 01:00:33;;;;;;;5.88;2.60;;;19.50;93.00;;;;;;5003929;28;20220;-71
2023/06/13 01:03:01;;;;;;;4.20;2.65;;;19.40;93.10;;;;;;5001487;28;20173;-71
2023/06/13 01:05:28;;;;;;;3.67;2.70;;;19.40;93.40;;;;;;5000706;28;20177;-71
2023/06/13 01:07:57;;;;;;;3.97;2.80;;;19.30;93.20;;;;;;5010942;28;20203;-72
2023/06/13 01:10:27;;;;;;;3.10;2.70;;;19.30;93.30;;;;;;5009381;28;20220;-69
2023/06/13 01:13:16;;;;;;;4.95;3.00;;;19.30;93.40;;;;;;5009852;28;20266;-71
2023/06/13 01:15:58;;;;;;;5.15;2.95;;;19.30;93.60;;;;;;5001087;28;20213;-71
2023/06/13 01:18:25;;;;;;;6.07;2.80;;;19.30;94.00;;;;;;5006329;28;20232;-70
2023/06/13 01:20:56;;;;;;;6.32;3.30;;;19.30;94.20;;;;;;5007922;28;20718;-72
2023/06/13 01:23:49;;;;;;;7.30;5.47;;;19.30;94.40;;;;;;5005494;28;20268;-72
2023/06/13 01:26:52;;;;;;;7.88;4.38;;;19.30;94.70;;;;;;4987202;28;20616;-71
2023/06/13 01:29:19;;;;;;;7.13;4.95;;;19.20;95.10;;;;;;5005413;28;20227;-71
2023/06/13 01:31:56;;;;;;;5.30;2.80;;;19.10;95.40;;;;;;5005474;28;20204;-71
2023/06/13 01:34:24;;;;;;;6.43;3.70;;;19.10;95.80;;;;;;5001814;28;20217;-71
2023/06/13 01:36:50;;;;;;;6.90;3.58;;;19.00;96.00;;;;;;5002857;28;20224;-71
2023/06/13 01:39:16;;;;;;;4.13;3.22;;;18.90;96.10;;;;;;5000575;28;20324;-71
2023/06/13 01:41:41;;;;;;;5.10;3.25;;;18.90;96.40;;;;;;5009228;28;20730;-71
2023/06/13 01:44:10;;;;;;;5.28;3.13;;;18.90;96.60;;;;;;4999711;28;20296;-71
2023/06/13 01:46:56;;;;;;;7.90;2.95;;;18.90;97.00;;;;;;5008032;28;20576;-71
2023/06/13 01:49:49;;;;;;;4.28;3.15;;;18.80;96.70;;;;;;5008398;28;20225;-71
2023/06/13 01:52:24;;;;;;;4.70;3.03;;;18.80;96.60;;;;;;4978564;28;20244;-71
2023/06/13 01:54:57;;;;;;;4.60;2.97;;;18.70;96.80;;;;;;5005962;28;20204;-71
2023/06/13 01:57:30;;;;;;;5.82;2.83;;;18.70;96.70;;;;;;5004540;28;20227;-71
2023/06/13 01:59:56;;;;;;;3.90;2.42;;;18.70;96.70;;;;;;5007347;28;20197;-71
2023/06/13 02:02:23;;;;;;;4.95;2.90;;;18.60;97.10;;;;;;5005166;28;20176;-71
2023/06/13 02:04:49;;;;;;;4.03;3.25;;;18.60;97.10;;;;;;5006063;28;20205;-71
2023/06/13 02:07:15;;;;;;;4.10;2.70;;;18.60;97.30;;;;;;5003506;28;20303;-71
2023/06/13 02:09:41;;;;;;;4.20;2.85;;;18.50;97.50;;;;;;5003950;28;20791;-70
2023/06/13 02:12:07;;;;;;;5.80;2.55;;;18.50;97.70;;;;;;5003610;28;20682;-70
2023/06/13 02:14:33;;;;;;;4.93;3.15;;;18.40;97.80;;;;;;5002519;28;20197;-71
2023/06/13 02:16:59;;;;;;;3.08;2.50;;;18.30;98.10;;;;;;5004721;28;20267;-70
2023/06/13 02:19:25;;;;;;;3.83;2.60;;;18.20;98.60;;;;;;5000361;28;20210;-69
2023/06/13 02:21:51;;;;;;;7.78;2.88;;;18.20;98.80;;;;;;5002495;28;20201;-70
2023/06/13 02:24:18;;;;;;;4.60;2.80;;;18.20;99.00;;;;;;5008751;28;20599;-72
2023/06/13 02:26:47;;;;;;;5.95;3.17;;;18.20;99.10;;;;;;5008370;28;20590;-69
2023/06/13 02:29:13;;;;;;;6.22;3.00;;;18.20;99.30;;;;;;5006779;28;20664;-70
2023/06/13 02:31:41;;;;;;;4.47;2.50;;;18.20;99.40;;;;;;5001470;28;20236;-70
2023/06/13 02:34:07;;;;;;;3.83;3.08;;;18.20;99.50;;;;;;5004793;28;20224;-71
2023/06/13 02:36:33;;;;;;;4.95;3.10;;;18.20;99.60;;;;;;5005168;28;20556;-70
2023/06/13 02:39:02;;;;;;;6.28;2.75;;;18.20;99.90;;;;;;5005264;28;20204;-70
2023/06/13 02:41:28;;;;;;;4.13;2.72;;;18.20;99.90;;;;;;5003136;28;20216;-70
2023/06/13 02:43:54;;;;;;;3.40;2.45;;;18.20;99.90;;;;;;5003488;28;20204;-70
2023/06/13 02:46:19;;;;;;;5.03;2.67;;;18.20;99.90;;;;;;5002770;28;20692;-71
2023/06/13 02:48:45;;;;;;;4.60;3.00;;;18.10;99.90;;;;;;5007729;28;20217;-70
2023/06/13 02:51:11;;;;;;;5.85;3.35;;;18.00;99.90;;;;;;5004019;28;20691;-70
2023/06/13 02:53:37;;;;;;;4.38;2.95;;;18.00;99.90;;;;;;5008497;28;20178;-70
2023/06/13 02:56:03;;;;;;;5.13;3.08;;;17.90;99.90;;;;;;5004084;28;20205;-70
2023/06/13 02:58:28;;;;;;;6.57;3.30;;;18.00;99.90;;;;;;5008676;28;20570;-71
2023/06/13 03:00:54;;;;;;;3.83;3.00;;;18.00;99.90;;;;;;5005087;28;20205;-71
2023/06/13 03:03:23;;;;;;;3.67;2.80;;;18.10;99.90;;;;;;5001946;28;20881;-70
2023/06/13 03:05:56;;;;;;;5.43;2.83;;;18.00;99.90;;;;;;5001071;28;20189;-70
2023/06/13 03:08:22;;;;;;;6.03;3.08;;;18.00;99.90;;;;;;5012188;28;20548;-71
2023/06/13 03:10:50;;;;;;;6.05;2.88;;;18.00;99.90;;;;;;5002418;28;20628;-71
2023/06/13 03:13:18;;;;;;;5.03;3.15;;;18.10;99.90;;;;;;5004509;28;20216;-71
2023/06/13 03:15:47;;;;;;;5.65;2.78;;;18.10;99.90;;;;;;5001095;28;20214;-71
2023/06/13 03:18:17;;;;;;;6.45;3.15;;;18.00;99.90;;;;;;5004686;28;20214;-71
2023/06/13 03:20:45;;;;;;;5.07;3.10;;;17.90;99.90;;;;;;5002280;28;20241;-70
2023/06/13 03:23:12;;;;;;;5.30;3.22;;;17.90;99.90;;;;;;5004384;28;20181;-70
2023/06/13 03:25:40;;;;;;;5.70;3.13;;;18.00;99.90;;;;;;5000058;28;20286;-71
2023/06/13 03:28:06;;;;;;;6.25;3.20;;;17.90;99.90;;;;;;5004593;28;20205;-71
2023/06/13 03:30:31;;;;;;;4.55;3.10;;;17.90;99.90;;;;;;5001414;28;20279;-71
2023/06/13 03:32:57;;;;;;;6.80;4.03;;;17.90;99.90;;;;;;5004956;28;20555;-70
2023/06/13 03:35:22;;;;;;;7.75;4.45;;;17.90;99.90;;;;;;5001090;28;20233;-70
2023/06/13 03:37:48;;;;;;;9.82;5.10;;;17.90;99.90;;;;;;5007867;28;20284;-71
2023/06/13 03:40:14;;;;;;;7.88;3.95;;;17.90;99.90;;;;;;5000769;28;20288;-70
2023/06/13 03:42:39;;;;;;;7.40;3.53;;;17.80;99.90;;;;;;5001007;28;20267;-71
2023/06/13 03:45:05;;;;;;;4.57;3.53;;;17.80;99.90;;;;;;5003085;28;20576;-71
2023/06/13 03:47:31;;;;;;;5.00;3.25;;;17.90;99.90;;;;;;5003690;28;20184;-70
2023/06/13 03:49:56;;;;;;;9.18;3.67;;;17.90;99.90;;;;;;5010391;28;20228;-72
2023/06/13 03:52:22;;;;;;;4.90;3.70;;;18.00;99.90;;;;;;5003464;28;20715;-71
2023/06/13 03:54:48;;;;;;;6.70;4.13;;;18.00;99.90;;;;;;5001349;28;20209;-71
2023/06/13 03:57:14;;;;;;;5.33;3.57;;;18.20;99.90;;;;;;5005173;28;20526;-70
2023/06/13 03:59:39;;;;;;;5.60;3.70;;;18.30;99.90;;;;;;5000909;28;20680;-71
2023/06/13 04:02:05;;;;;;;4.75;3.22;;;18.50;99.90;;;;;;5007792;28;20193;-70
2023/06/13 04:04:32;;;;;;;8.30;3.50;;;18.70;99.90;;;;;;5000526;28;20213;-71
2023/06/13 04:06:58;;;;;;;7.28;3.53;;;18.90;99.90;;;;;;5005804;28;20287;-69
2023/06/13 04:09:24;;;;;;;6.95;3.47;;;19.20;99.90;;;;;;5001219;28;20214;-68
2023/06/13 04:11:50;;;;;;;7.75;3.83;;;19.80;99.90;;;;;;5002821;28;20621;-71
2023/06/13 04:14:15;;;;;;;5.78;3.35;;;20.10;99.90;;;;;;5002065;28;20220;-70
2023/06/13 04:16:43;;;;;;;6.05;3.80;;;20.20;99.90;;;;;;5001400;28;20210;-70
2023/06/13 04:19:09;;;;;;;5.53;3.22;;;20.90;99.90;;;;;;4999892;28;20257;-71
2023/06/13 04:21:35;;;;;;;6.30;3.35;;;20.80;99.90;;;;;;5002278;28;20619;-71
2023/06/13 04:24:00;;;;;;;6.35;3.45;;;20.40;99.90;;;;;;5001423;28;20711;-72
2023/06/13 04:26:27;;;;;;;6.05;3.88;;;20.70;99.90;;;;;;5002814;28;20189;-71
2023/06/13 04:28:52;;;;;;;4.57;3.67;;;21.20;99.90;;;;;;5000866;28;20645;-72
2023/06/13 04:31:20;;;;;;;5.10;3.08;;;21.90;99.90;;;;;;5003212;28;20280;-71
2023/06/13 04:33:46;;;;;;;5.47;3.40;;;22.10;99.50;;;;;;4999850;28;20217;-71
2023/06/13 04:36:12;;;;;;;5.47;3.17;;;22.40;98.90;;;;;;5003410;28;20220;-71
2023/06/13 04:38:39;;;;;;;6.57;3.50;;;23.10;97.70;;;;;;5005451;28;20563;-71
2023/06/13 04:41:13;;;;;;;7.53;4.22;;;23.20;96.80;;;;;;5003390;28;20255;-70
2023/06/13 04:43:41;;;;;;;7.88;3.63;;;23.30;96.80;;;;;;4999621;28;20726;-71
2023/06/13 04:46:10;;;;;;;8.15;3.85;;;22.90;96.70;;;;;;5006548;28;20756;-71
2023/06/13 04:48:36;;;;;;;9.15;4.30;;;22.60;97.00;;;;;;5008082;28;20651;-71
2023/06/13 04:51:03;;;;;;;8.75;3.88;;;22.20;97.50;;;;;;5010214;28;20184;-71
2023/06/13 04:53:30;;;;;;;5.97;3.40;;;23.70;96.90;;;;;;4999838;28;20209;-70
2023/06/13 04:55:57;;;;;;;4.68;3.47;;;25.40;94.30;;;;;;5002920;28;20212;-71
2023/06/13 04:58:23;;;;;;;8.90;3.75;;;26.20;92.00;;;;;;5003309;28;20262;-71
2023/06/13 05:00:52;;;;;;;7.95;3.10;;;26.80;90.30;;;;;;5010137;28;20599;-72
2023/06/13 05:03:21;;;;;;;4.40;3.30;;;26.90;87.90;;;;;;5009801;28;20220;-71
2023/06/13 05:05:48;;;;;;;7.22;3.15;;;26.60;87.20;;;;;;5007621;28;20196;-71
2023/06/13 05:08:19;;;;;;;5.78;3.17;;;25.90;89.00;;;;;;4999576;28;20179;-71
2023/06/13 05:10:45;;;;;;;8.65;3.65;;;27.20;88.10;;;;;;5004163;28;20206;-72
2023/06/13 05:13:11;;;;;;;4.97;2.90;;;28.50;84.70;;;;;;5007593;28;20209;-72
2023/06/13 05:15:38;;;;;;;6.32;3.50;;;29.40;82.30;;;;;;5006254;28;20625;-69
2023/06/13 05:18:06;;;;;;;7.65;3.42;;;30.40;77.90;;;;;;5006737;28;20607;-71
2023/06/13 05:20:32;;;;;;;15.85;14.20;;;30.80;74.10;;;;;;5003731;28;20207;-71
2023/06/13 05:23:00;;;;;;;18.00;13.60;;;28.80;76.10;;;;;;5005317;28;20213;-71
2023/06/13 05:25:26;;;;;;;10.73;5.95;;;28.50;77.70;;;;;;5000213;28;20205;-71
2023/06/13 05:27:51;;;;;;;6.60;4.85;;;28.50;77.20;;;;;;5004683;28;20730;-71
2023/06/13 05:30:17;;;;;;;4.63;3.58;;;29.70;76.10;;;;;;5002919;28;20275;-72
2023/06/13 05:32:43;;;;;;;4.82;3.65;;;30.50;73.90;;;;;;5002629;28;20239;-72
2023/06/13 05:35:09;;;;;;;9.63;3.75;;;31.00;71.70;;;;;;5001779;28;20639;-72
2023/06/13 05:37:38;;;;;;;11.05;4.00;;;32.00;69.60;;;;;;5006659;28;20209;-72
2023/06/13 05:40:05;;;;;;;8.15;4.07;;;31.90;68.20;;;;;;5010324;28;20231;-72
2023/06/13 05:42:32;;;;;;;5.05;3.58;;;32.00;68.30;;;;;;5008502;28;20291;-69
2023/06/13 05:44:58;;;;;;;5.45;3.63;;;32.30;67.10;;;;;;5006482;28;20181;-73
2023/06/13 05:47:23;;;;;;;9.18;4.25;;;32.50;66.10;;;;;;5008968;28;20172;-70
2023/06/13 05:49:49;;;;;;;5.13;3.72;;;32.80;65.70;;;;;;5007459;28;20231;-72
2023/06/13 05:52:15;;;;;;;7.82;4.18;;;32.10;65.50;;;;;;5002648;28;20604;-70
2023/06/13 05:54:40;;;;;;;9.90;5.72;;;31.70;66.70;;;;;;5003708;28;20279;-70
2023/06/13 05:57:06;;;;;;;8.82;4.60;;;31.80;67.40;;;;;;5004101;28;20200;-72
2023/06/13 05:59:31;;;;;;;11.07;9.98;;;31.80;67.10;;;;;;5003372;28;20229;-70
2023/06/13 06:01:57;;;;;;;7.05;4.40;;;31.00;66.20;;;;;;5002386;28;20200;-70
2023/06/13 06:04:25;;;;;;;5.00;4.10;;;30.60;66.50;;;;;;5002501;28;20216;-70
2023/06/13 06:06:50;;;;;;;6.22;4.22;;;31.20;65.40;;;;;;5003033;28;20221;-70
2023/06/13 06:09:16;;;;;;;10.65;5.13;;;31.70;65.30;;;;;;5001998;28;20223;-69
2023/06/13 06:11:42;;;;;;;8.05;4.53;;;32.40;64.10;;;;;;5000329;28;20255;-71
2023/06/13 06:14:07;;;;;;;5.13;4.63;;;33.30;62.60;;;;;;5001560;28;20239;-70
2023/06/13 06:16:33;;;;;;;7.25;4.28;;;32.50;62.20;;;;;;5008647;28;20699;-70
2023/06/13 06:18:58;;;;;;;8.85;4.45;;;32.00;63.90;;;;;;5005433;28;20212;-71
2023/06/13 06:21:24;;;;;;;8.13;4.28;;;32.30;64.70;;;;;;5008874;28;20212;-67
2023/06/13 06:23:49;;;;;;;16.63;12.00;;;33.10;62.60;;;;;;5007077;28;20181;-71
2023/06/13 06:26:15;;;;;;;11.57;7.68;;;33.50;61.80;;;;;;5008412;28;20184;-70
2023/06/13 06:28:41;;;;;;;17.95;8.93;;;32.40;62.50;;;;;;5005142;28;20559;-71
2023/06/13 06:31:07;;;;;;;7.20;4.88;;;32.70;62.60;;;;;;5005137;28;20263;-70
2023/06/13 06:33:32;;;;;;;10.95;6.80;;;33.10;61.00;;;;;;5006537;28;20211;-70
2023/06/13 06:35:58;;;;;;;6.32;4.25;;;32.90;61.40;;;;;;5004219;28;20581;-70
2023/06/13 06:38:23;;;;;;;11.20;4.55;;;33.70;60.90;;;;;;5003838;28;20303;-68
2023/06/13 06:40:49;;;;;;;7.97;4.68;;;33.00;60.50;;;;;;5002761;28;20632;-70
2023/06/13 06:43:15;;;;;;;7.68;4.45;;;32.30;61.50;;;;;;5003237;28;20220;-70
2023/06/13 06:45:41;;;;;;;7.28;3.95;;;33.20;62.50;;;;;;5003044;28;20917;-70
2023/06/13 06:48:06;;;;;;;8.63;4.70;;;33.90;61.10;;;;;;5003000;28;20282;-70
2023/06/13 06:50:32;;;;;;;4.95;3.97;;;34.40;60.60;;;;;;4999225;28;20296;-71
2023/06/13 06:52:57;;;;;;;7.68;4.28;;;34.60;60.40;;;;;;5005438;28;20197;-70
2023/06/13 06:55:23;;;;;;;4.50;3.60;;;34.50;59.70;;;;;;5007312;28;20216;-70
2023/06/13 06:57:48;;;;;;;8.00;4.43;;;34.50;60.60;;;;;;5008573;28;20228;-70
2023/06/13 07:00:15;;;;;;;8.15;4.30;;;34.30;59.90;;;;;;5008131;28;20222;-72
2023/06/13 07:02:41;;;;;;;5.18;4.07;;;33.40;60.60;;;;;;5007081;28;20643;-71
2023/06/13 07:05:08;;;;;;;5.88;4.13;;;31.80;60.50;;;;;;5007072;28;20216;-71
2023/06/13 07:07:35;;;;;;;10.10;3.92;;;30.90;63.10;;;;;;5004434;28;20699;-70
2023/06/13 07:10:01;;;;;;;6.22;3.95;;;31.20;62.80;;;;;;5005764;28;20231;-71
2023/06/13 07:12:26;;;;;;;6.88;3.83;;;32.20;61.80;;;;;;5004826;28;20220;-70
2023/06/13 07:14:52;;;;;;;7.60;4.00;;;33.40;60.20;;;;;;5006525;28;20227;-72
2023/06/13 07:17:17;;;;;;;7.82;3.70;;;33.20;58.50;;;;;;5006304;28;20181;-70
2023/06/13 07:19:43;;;;;;;7.18;4.00;;;33.00;58.90;;;;;;5004799;28;20217;-71
2023/06/13 07:22:09;;;;;;;6.70;4.50;;;32.50;59.70;;;;;;5011860;28;20822;-69
2023/06/13 07:24:34;;;;;;;6.32;4.32;;;31.20;59.70;;;;;;5003139;28;20213;-70
2023/06/13 07:27:00;;;;;;;8.30;4.40;;;29.80;61.90;;;;;;5008348;28;20172;-70
2023/06/13 07:29:26;;;;;;;7.88;4.35;;;29.30;63.80;;;;;;5006905;28;20285;-71
2023/06/13 07:31:51;;;;;;;6.50;3.97;;;29.00;63.70;;;;;;5009060;28;20707;-70
2023/06/13 07:34:17;;;;;;;12.55;3.85;;;28.30;64.30;;;;;;5011923;28;20213;-70
2023/06/13 07:36:43;;;;;;;10.07;3.72;;;28.00;65.30;;;;;;5010493;28;20288;-70
2023/06/13 07:39:13;;;;;;;9.57;3.92;;;28.50;64.60;;;;;;5011293;28;20216;-69
2023/06/13 07:41:39;;;;;;;4.70;3.75;;;28.60;64.70;;;;;;5010448;28;20565;-68
2023/06/13 07:44:05;;;;;;;5.35;3.80;;;29.40;64.10;;;;;;5009514;28;20228;-70
2023/06/13 07:46:31;;;;;;;10.88;4.38;;;29.80;63.30;;;;;;5008336;28;20220;-70
2023/06/13 07:48:57;;;;;;;7.85;4.30;;;30.50;62.90;;;;;;5007602;28;20221;-71
2023/06/13 07:51:24;;;;;;;12.35;4.68;;;32.00;62.00;;;;;;5011399;28;20266;-69
2023/06/13 07:53:50;;;;;;;8.02;4.03;;;32.50;59.80;;;;;;5005621;28;20182;-71
2023/06/13 07:56:16;;;;;;;6.43;4.15;;;32.50;59.10;;;;;;5006037;28;20233;-70
2023/06/13 07:58:42;;;;;;;9.30;3.88;;;32.30;59.60;;;;;;5003743;28;20217;-70
2023/06/13 08:01:08;;;;;;;9.38;3.83;;;31.10;60.80;;;;;;5011098;28;20703;-70
2023/06/13 08:03:34;;;;;;;8.20;4.43;;;30.80;62.70;;;;;;5002961;28;20300;-70
2023/06/13 08:06:00;;;;;;;6.07;4.03;;;31.10;63.00;;;;;;5003676;28;20239;-70
2023/06/13 08:08:26;;;;;;;7.72;3.92;;;30.90;62.80;;;;;;5003177;28;20177;-68
2023/06/13 08:10:52;;;;;;;6.05;3.80;;;30.80;64.10;;;;;;5006203;28;20288;-70
2023/06/13 08:13:17;;;;;;;8.93;4.07;;;31.60;63.40;;;;;;5011546;28;20296;-70
2023/06/13 08:15:43;;;;;;;8.35;4.88;;;32.10;62.30;;;;;;5008933;28;20703;-71
2023/06/13 08:18:09;;;;;;;4.63;3.47;;;31.80;62.20;;;;;;5010422;28;20213;-70
2023/06/13 08:20:35;;;;;;;6.45;3.85;;;32.00;61.80;;;;;;5009747;28;20575;-72
2023/06/13 08:23:01;;;;;;;5.53;3.85;;;31.80;61.90;;;;;;4999525;28;20692;-71
2023/06/13 08:25:27;;;;;;;6.50;3.60;;;32.30;61.10;;;;;;5004226;28;20220;-71
2023/06/13 08:27:53;;;;;;;7.90;4.10;;;32.50;59.40;;;;;;5019975;28;20798;-72
2023/06/13 08:30:18;;;;;;;5.90;3.40;;;33.20;60.00;;;;;;5005221;28;20216;-71
2023/06/13 08:32:46;;;;;;;6.53;3.85;;;33.50;59.80;;;;;;5004385;28;20235;-72
2023/06/13 08:35:12;;;;;;;9.40;4.00;;;33.60;58.50;;;;;;5006684;28;20202;-71
2023/06/13 08:37:39;;;;;;;8.18;3.88;;;32.30;58.70;;;;;;4998661;28;20618;-71
2023/06/13 08:40:09;;;;;;;6.32;3.95;;;31.20;60.20;;;;;;5004749;28;20201;-71
2023/06/13 08:42:39;;;;;;;7.22;3.75;;;30.60;61.50;;;;;;5002361;28;20893;-71
2023/06/13 08:45:07;;;;;;;6.85;3.30;;;30.40;61.80;;;;;;5007376;28;20212;-71
2023/06/13 08:47:33;;;;;;;5.38;3.60;;;29.90;60.00;;;;;;5000744;28;20190;-71
2023/06/13 08:50:00;;;;;;;5.85;4.00;;;29.20;62.00;;;;;;4999483;28;20691;-71
2023/06/13 08:52:29;;;;;;;6.50;3.80;;;29.40;63.40;;;;;;5008712;28;20596;-71
2023/06/13 08:54:58;;;;;;;3.88;3.47;;;29.80;63.50;;;;;;5008776;28;20225;-71
2023/06/13 08:57:27;;;;;;;7.78;3.25;;;30.20;62.50;;;;;;5010072;28;20302;-70
2023/06/13 08:59:53;;;;;;;5.97;3.38;;;29.90;62.30;;;;;;5007657;28;20205;-71
2023/06/13 09:02:24;;;;;;;6.13;3.63;;;29.50;63.20;;;;;;5008945;28;20564;-71
2023/06/13 09:04:51;;;;;;;6.28;3.03;;;29.10;61.90;;;;;;5007901;28;20240;-70
2023/06/13 09:07:18;;;;;;;5.78;2.97;;;28.60;62.50;;;;;;5007034;28;20306;-71
2023/06/13 09:09:45;;;;;;;8.70;3.47;;;28.50;63.70;;;;;;5004330;28;20213;-69
2023/06/13 09:12:16;;;;;;;5.45;3.30;;;29.40;63.50;;;;;;5009686;28;20265;-71
2023/06/13 09:14:42;;;;;;;5.82;3.22;;;30.10;61.90;;;;;;5003187;28;20231;-71
2023/06/13 09:17:08;;;;;;;5.05;4.10;;;31.00;61.40;;;;;;5003180;28;20207;-71
2023/06/13 09:19:33;;;;;;;4.22;3.35;;;31.30;60.50;;;;;;5002308;28;20625;-71
2023/06/13 09:21:59;;;;;;;4.43;3.83;;;31.90;59.90;;;;;;5002399;28;20233;-70
2023/06/13 09:24:25;;;;;;;5.97;3.25;;;32.10;59.40;;;;;;5001356;28;20209;-69
2023/06/13 09:26:51;;;;;;;3.72;3.38;;;31.70;59.80;;;;;;5003642;28;20212;-70
2023/06/13 09:29:17;;;;;;;5.38;3.53;;;31.00;59.90;;;;;;5010474;28;20236;-70
2023/06/13 09:31:42;;;;;;;5.93;3.25;;;31.20;60.90;;;;;;5008675;28;20212;-71
2023/06/13 09:34:14;;;;;;;4.30;3.10;;;31.20;60.30;;;;;;5008329;28;20213;-71
2023/06/13 09:36:40;;;;;;;9.90;3.75;;;30.30;61.20;;;;;;5007418;28;20227;-70
2023/06/13 09:39:06;;;;;;;8.13;3.38;;;29.70;62.00;;;;;;5006521;28;20243;-69
2023/06/13 09:41:33;;;;;;;6.93;3.13;;;29.10;62.10;;;;;;5008200;28;20234;-71
2023/06/13 09:44:05;;;;;;;5.22;2.75;;;28.60;61.80;;;;;;5004676;28;20205;-71
2023/06/13 09:46:36;;;;;;;5.63;2.63;;;28.40;61.90;;;;;;5001316;28;20803;-71
2023/06/13 09:49:02;;;;;;;6.13;3.45;;;27.50;61.20;;;;;;5004384;28;20645;-71
2023/06/13 09:51:32;;;;;;;6.60;3.33;;;27.50;62.20;;;;;;5005017;28;20236;-70
2023/06/13 09:54:00;;;;;;;5.63;3.08;;;28.00;63.60;;;;;;5002570;28;20236;-70
2023/06/13 09:56:26;;;;;;;10.07;3.78;;;28.10;63.70;;;;;;5003461;28;20216;-70
2023/06/13 09:58:51;;;;;;;6.43;4.35;;;28.40;63.40;;;;;;5001917;28;20213;-71
2023/06/13 10:01:19;;;;;;;5.35;3.28;;;28.40;62.50;;;;;;5003084;28;20217;-70
2023/06/13 10:03:46;;;;;;;4.85;3.17;;;27.80;62.20;;;;;;5002081;28;20210;-72
2023/06/13 10:06:12;;;;;;;4.45;2.92;;;28.00;62.10;;;;;;5005445;28;20259;-72
2023/06/13 10:08:38;;;;;;;15.32;6.00;;;28.20;61.00;;;;;;4997845;28;20568;-66
2023/06/13 10:11:14;;;;;;;7.45;3.67;;;28.70;61.40;;;;;;5004867;28;20259;-73
2023/06/13 10:13:59;;;;;;;9.02;3.47;;;28.90;61.00;;;;;;5005617;28;20205;-71
2023/06/13 10:16:27;;;;;;;9.93;3.35;;;28.80;59.60;;;;;;5004728;28;20285;-70
2023/06/13 10:18:54;;;;;;;6.63;3.22;;;28.00;61.50;;;;;;5005637;28;20213;-72
2023/06/13 10:21:21;;;;;;;5.75;3.63;;;28.10;62.40;;;;;;5004542;28;20300;-70
2023/06/13 10:23:49;;;;;;;7.13;3.30;;;28.30;62.90;;;;;;4997204;28;20196;-69
2023/06/13 10:26:33;;;;;;;7.07;3.33;;;28.80;63.70;;;;;;5002019;28;20176;-70
2023/06/13 10:29:04;;;;;;;14.18;6.45;;;29.20;62.50;;;;;;5004862;28;20220;-70
2023/06/13 10:31:35;;;;;;;4.00;3.00;;;29.10;63.40;;;;;;5003906;28;20921;-70
2023/06/13 10:34:19;;;;;;;8.88;4.30;;;29.20;62.80;;;;;;5002156;28;20205;-70
2023/06/13 10:37:10;;;;;;;5.25;3.30;;;28.20;62.90;;;;;;4999942;28;20220;-67
2023/06/13 10:39:45;;;;;;;7.05;4.05;;;27.90;64.20;;;;;;5002689;28;20219;-70
2023/06/13 10:42:23;;;;;;;5.70;3.30;;;28.00;63.90;;;;;;5001737;28;20211;-70
2023/06/13 10:45:21;;;;;;;5.88;3.13;;;28.40;63.50;;;;;;5001614;28;20184;-70
2023/06/13 10:47:47;;;;;;;8.60;3.05;;;28.60;62.70;;;;;;5005067;28;20177;-71
2023/06/13 10:50:16;;;;;;;3.85;3.10;;;27.40;64.10;;;;;;5008599;28;20226;-71
2023/06/13 10:52:49;;;;;;;4.22;3.15;;;26.90;65.90;;;;;;5012063;28;20209;-72
2023/06/13 10:55:26;;;;;;;6.18;3.35;;;26.70;65.50;;;;;;5006652;28;20212;-71
2023/06/13 10:57:56;;;;;;;6.18;3.63;;;26.20;66.00;;;;;;5010368;28;20212;-71
2023/06/13 11:00:34;;;;;;;5.50;3.22;;;26.40;66.40;;;;;;5010261;28;20205;-71
2023/06/13 11:03:11;;;;;;;10.35;4.70;;;26.30;66.60;;;;;;5007456;28;20661;-71
2023/06/13 11:05:48;;;;;;;9.95;3.45;;;26.00;67.60;;;;;;5003988;28;20192;-72
2023/06/13 11:08:15;;;;;;;4.85;2.67;;;25.80;67.90;;;;;;5007000;28;20200;-71
2023/06/13 11:10:43;;;;;;;7.32;3.47;;;25.70;68.00;;;;;;5006336;28;20243;-70
2023/06/13 11:13:18;;;;;;;5.63;2.30;;;25.50;67.00;;;;;;5005312;28;20219;-71
2023/06/13 11:15:44;;;;;;;7.57;3.03;;;25.10;65.40;;;;;;5002852;28;20706;-69
2023/06/13 11:18:09;;;;;;;5.10;2.90;;;24.90;63.70;;;;;;5003980;28;20224;-70
2023/06/13 11:20:51;;;;;;;3.30;2.33;;;24.70;66.00;;;;;;5004002;28;20192;-70
2023/06/13 11:23:18;;;;;;;7.07;2.72;;;24.70;66.70;;;;;;5009614;28;20255;-69
2023/06/13 11:25:48;;;;;;;6.35;2.70;;;24.60;67.30;;;;;;5011760;28;20209;-72
2023/06/13 11:28:15;;;;;;;10.13;3.28;;;24.40;68.90;;;;;;5011585;28;20212;-69
2023/06/13 11:30:45;;;;;;;7.07;2.58;;;24.30;69.80;;;;;;5011495;28;20307;-70
2023/06/13 11:33:12;;;;;;;8.18;4.85;;;24.50;69.10;;;;;;5009628;28;20220;-70
2023/06/13 11:35:40;;;;;;;8.40;3.58;;;24.60;68.40;;;;;;5006229;28;20203;-70
2023/06/13 11:38:15;;;;;;;4.82;3.15;;;24.80;68.50;;;;;;5008804;28;20256;-69
2023/06/13 11:40:46;;;;;;;5.93;3.72;;;24.70;66.80;;;;;;5007381;28;20291;-70
2023/06/13 11:43:13;;;;;;;8.73;4.50;;;25.00;68.20;;;;;;5006658;28;20229;-70
2023/06/13 11:45:39;;;;;;;11.63;4.63;;;25.40;67.90;;;;;;5006277;28;20259;-70
2023/06/13 11:48:05;;;;;;;4.80;2.63;;;25.50;66.20;;;;;;5005642;28;20214;-69
2023/06/13 11:50:32;;;;;;;3.50;2.63;;;25.20;67.30;;;;;;5006926;28;20243;-70
2023/06/13 11:53:07;;;;;;;7.68;4.25;;;25.20;68.30;;;;;;5003323;28;20233;-70
2023/06/13 11:55:34;;;;;;;3.78;3.38;;;25.10;66.80;;;;;;5002105;28;20212;-69
2023/06/13 11:58:00;;;;;;;3.42;2.33;;;25.10;66.50;;;;;;5008089;28;20255;-69
2023/06/13 12:00:27;;;;;;;4.50;2.60;;;25.10;65.80;;;;;;5004071;28;20217;-69
2023/06/13 12:02:57;;;;;;;4.38;2.50;;;25.00;66.20;;;;;;5008153;28;20636;-68
2023/06/13 12:05:23;;;;;;;4.00;2.10;;;25.10;66.20;;;;;;5011114;28;20188;-67
2023/06/13 12:07:50;;;;;;;4.70;2.40;;;25.30;65.10;;;;;;5010363;28;20213;-69
2023/06/13 12:10:17;;;;;;;4.40;2.50;;;25.10;65.30;;;;;;5010430;28;20281;-70
2023/06/13 12:12:58;;;;;;;3.05;2.00;;;25.10;65.50;;;;;;5008491;28;20228;-70
2023/06/13 12:15:27;;;;;;;5.25;2.33;;;25.00;66.80;;;;;;5003979;28;20224;-68
2023/06/13 12:18:00;;;;;;;6.22;2.50;;;25.10;66.20;;;;;;5004686;28;20741;-70
2023/06/13 12:20:26;;;;;;;2.60;2.40;;;25.30;66.00;;;;;;5005337;28;20680;-69
2023/06/13 12:23:00;;;;;;;3.78;2.28;;;24.90;66.90;;;;;;5005649;28;20295;-70
2023/06/13 12:25:33;;;;;;;5.20;2.70;;;24.60;68.50;;;;;;5009776;28;20208;-69
2023/06/13 12:28:01;;;;;;;6.15;2.70;;;24.10;69.40;;;;;;5003692;28;20209;-71
2023/06/13 12:30:29;;;;;;;10.05;6.35;;;24.20;69.30;;;;;;5005141;28;20216;-70
2023/06/13 12:32:56;;;;;;;5.30;3.13;;;24.40;69.70;;;;;;5001883;28;20173;-68
2023/06/13 12:35:24;;;;;;;7.93;3.20;;;24.80;69.20;;;;;;5005265;28;20196;-70
2023/06/13 12:37:59;;;;;;;5.93;2.95;;;24.90;69.10;;;;;;5007475;28;20688;-70
2023/06/13 12:40:32;;;;;;;5.70;2.97;;;24.50;69.70;;;;;;5008481;28;20215;-69
2023/06/13 12:43:01;;;;;;;6.07;2.90;;;24.50;70.50;;;;;;5010536;28;20594;-70
2023/06/13 12:45:28;;;;;;;5.93;3.30;;;24.40;71.00;;;;;;5006928;28;20205;-71
2023/06/13 12:47:54;;;;;;;5.00;3.60;;;24.30;71.40;;;;;;5008641;28;20228;-71
2023/06/13 12:50:23;;;;;;;7.38;4.45;;;24.10;72.70;;;;;;5009296;28;20212;-71